createdAt,value
2017-09-11T00:00:28.184Z,80.02
2017-09-11T00:01:28.151Z,80.11
2017-09-11T00:02:28.119Z,80.59
2017-09-11T00:03:28.083Z,80.79
2017-09-11T00:04:28.048Z,80.02
2017-09-11T00:05:28.022Z,80.40
2017-09-11T00:06:27.980Z,80.40
2017-09-11T00:07:27.946Z,79.93
2017-09-11T00:08:27.909Z,79.54
2017-09-11T00:09:27.872Z,79.73
2017-09-11T00:10:27.858Z,79.44
2017-09-11T00:11:27.806Z,79.44
2017-09-11T00:12:27.773Z,79.25
2017-09-11T00:13:27.736Z,79.25
2017-09-11T00:14:27.707Z,79.54
2017-09-11T00:15:27.683Z,79.54
2017-09-11T00:16:27.632Z,79.64
2017-09-11T00:17:27.599Z,79.54
2017-09-11T00:18:27.562Z,79.35
2017-09-11T00:19:27.528Z,79.44
2017-09-11T00:20:27.494Z,79.64
2017-09-11T00:21:27.460Z,79.64
2017-09-11T00:22:27.424Z,79.44
2017-09-11T00:23:27.392Z,79.83
2017-09-11T00:24:27.355Z,79.54
2017-09-11T00:25:27.322Z,80.11
2017-09-11T00:26:27.288Z,80.30
2017-09-11T00:27:27.261Z,79.93
2017-09-11T00:28:27.269Z,80.11
2017-09-11T00:29:27.184Z,79.93
2017-09-11T00:30:27.153Z,80.11
2017-09-11T00:31:27.129Z,80.50
2017-09-11T00:32:27.080Z,80.30
2017-09-11T00:33:27.070Z,80.21
2017-09-11T00:34:27.016Z,80.02
2017-09-11T00:35:26.978Z,80.40
2017-09-11T00:36:26.945Z,80.40
2017-09-11T00:37:26.909Z,79.98
2017-09-11T00:38:26.884Z,80.27
2017-09-11T00:39:26.837Z,80.36
2017-09-11T00:40:26.805Z,80.11
2017-09-11T00:41:26.773Z,80.30
2017-09-11T00:42:26.738Z,80.11
2017-09-11T00:43:26.727Z,79.83
2017-09-11T00:44:26.666Z,80.07
2017-09-11T00:45:26.632Z,80.17
2017-09-11T00:46:26.607Z,80.27
2017-09-11T00:47:26.584Z,80.02
2017-09-11T00:48:26.544Z,80.07
2017-09-11T00:49:26.502Z,80.11
2017-09-11T00:50:26.467Z,80.11
2017-09-11T00:51:26.429Z,80.65
2017-09-11T00:52:26.402Z,80.55
2017-09-11T00:53:26.353Z,80.36
2017-09-11T00:54:26.329Z,80.21
2017-09-11T00:55:26.284Z,79.79
2017-09-11T00:56:26.270Z,80.55
2017-09-11T00:57:26.220Z,80.36
2017-09-11T00:58:26.181Z,80.27
2017-09-11T00:59:26.149Z,79.98
2017-09-11T01:00:26.109Z,80.36
2017-09-11T01:01:26.086Z,79.88
2017-09-11T01:02:26.041Z,80.27
2017-09-11T01:03:26.004Z,80.55
2017-09-11T01:04:25.979Z,80.46
2017-09-11T01:05:25.937Z,80.07
2017-09-11T01:06:25.900Z,80.46
2017-09-11T01:07:25.867Z,80.55
2017-09-11T01:08:25.831Z,80.55
2017-09-11T01:09:25.796Z,79.79
2017-09-11T01:10:25.763Z,79.98
2017-09-11T01:11:25.727Z,79.98
2017-09-11T01:12:25.692Z,80.27
2017-09-11T01:13:25.659Z,80.55
2017-09-11T01:14:25.633Z,80.55
2017-09-11T01:15:25.589Z,80.55
2017-09-11T01:16:25.553Z,80.84
2017-09-11T01:17:25.521Z,80.46
2017-09-11T01:18:25.484Z,80.55
2017-09-11T01:19:25.447Z,81.13
2017-09-11T01:20:25.414Z,80.93
2017-09-11T01:21:25.378Z,81.13
2017-09-11T01:22:25.344Z,81.13
2017-09-11T01:23:25.309Z,80.93
2017-09-11T01:24:25.271Z,80.65
2017-09-11T01:25:25.240Z,80.93
2017-09-11T01:26:25.205Z,81.13
2017-09-11T01:27:25.205Z,81.13
2017-09-11T01:28:25.139Z,81.51
2017-09-11T01:29:25.101Z,81.99
2017-09-11T01:30:25.066Z,81.85
2017-09-11T01:31:25.029Z,81.79
2017-09-11T01:32:24.994Z,81.60
2017-09-11T01:33:24.960Z,81.76
2017-09-11T01:34:24.926Z,81.56
2017-09-11T01:35:24.892Z,81.99
2017-09-11T01:36:24.856Z,82.32
2017-09-11T01:37:24.822Z,82.32
2017-09-11T01:38:24.799Z,82.23
2017-09-11T01:39:24.754Z,81.79
2017-09-11T01:40:24.717Z,82.32
2017-09-11T01:41:24.693Z,81.95
2017-09-11T01:42:24.645Z,81.85
2017-09-11T01:43:24.615Z,82.52
2017-09-11T01:44:24.574Z,82.23
2017-09-11T01:45:24.540Z,81.95
2017-09-11T01:46:24.512Z,81.95
2017-09-11T01:47:24.469Z,82.23
2017-09-11T01:48:24.443Z,82.23
2017-09-11T01:49:24.403Z,82.32
2017-09-11T01:50:24.366Z,82.42
2017-09-11T01:51:24.330Z,82.90
2017-09-11T01:52:24.297Z,82.81
2017-09-11T01:53:24.275Z,82.81
2017-09-11T01:54:24.227Z,82.90
2017-09-11T01:55:24.191Z,82.90
2017-09-11T01:56:24.157Z,83.38
2017-09-11T01:57:24.119Z,83.09
2017-09-11T01:58:24.088Z,82.90
2017-09-11T01:59:24.050Z,83.00
2017-09-11T02:00:24.015Z,83.18
2017-09-11T02:01:23.980Z,82.71
2017-09-11T02:02:23.948Z,82.90
2017-09-11T02:03:23.909Z,83.38
2017-09-11T02:04:23.875Z,82.90
2017-09-11T02:05:23.843Z,83.28
2017-09-11T02:06:23.805Z,84.05
2017-09-11T02:07:23.770Z,83.67
2017-09-11T02:08:23.736Z,83.47
2017-09-11T02:09:23.700Z,83.67
2017-09-11T02:10:23.665Z,83.38
2017-09-11T02:11:23.630Z,83.57
2017-09-11T02:12:23.605Z,83.86
2017-09-11T02:13:23.559Z,83.57
2017-09-11T02:14:23.528Z,84.05
2017-09-11T02:15:23.490Z,84.05
2017-09-11T02:16:23.464Z,84.05
2017-09-11T02:17:23.426Z,84.05
2017-09-11T02:18:23.384Z,84.05
2017-09-11T02:19:23.348Z,84.52
2017-09-11T02:20:23.321Z,84.23
2017-09-11T02:21:23.277Z,84.43
2017-09-11T02:22:23.247Z,84.91
2017-09-11T02:23:23.225Z,84.33
2017-09-11T02:24:23.177Z,84.14
2017-09-11T02:25:23.138Z,84.91
2017-09-11T02:26:23.103Z,84.43
2017-09-11T02:27:23.068Z,84.81
2017-09-11T02:28:23.035Z,84.43
2017-09-11T02:29:22.997Z,84.52
2017-09-11T02:30:22.969Z,84.81
2017-09-11T02:31:22.932Z,85.10
2017-09-11T02:32:22.893Z,85.19
2017-09-11T02:33:22.860Z,85.19
2017-09-11T02:34:22.836Z,85.19
2017-09-11T02:35:22.788Z,85.29
2017-09-11T02:36:22.764Z,85.29
2017-09-11T02:37:22.717Z,85.19
2017-09-11T02:38:22.681Z,85.67
2017-09-11T02:39:22.656Z,85.58
2017-09-11T02:40:22.609Z,85.67
2017-09-11T02:41:22.578Z,85.48
2017-09-11T02:42:22.543Z,86.20
2017-09-11T02:43:22.505Z,85.58
2017-09-11T02:44:22.471Z,85.58
2017-09-11T02:45:22.437Z,85.77
2017-09-11T02:46:22.400Z,85.19
2017-09-11T02:47:22.364Z,85.38
2017-09-11T02:48:22.330Z,85.96
2017-09-11T02:49:22.294Z,86.15
2017-09-11T02:50:22.258Z,86.01
2017-09-11T02:51:22.221Z,85.67
2017-09-11T02:52:22.196Z,86.05
2017-09-11T02:53:22.160Z,86.10
2017-09-11T02:54:22.116Z,86.15
2017-09-11T02:55:22.081Z,85.77
2017-09-11T02:56:22.054Z,85.77
2017-09-11T02:57:22.011Z,86.05
2017-09-11T02:58:21.984Z,86.72
2017-09-11T02:59:21.944Z,86.77
2017-09-11T03:00:21.906Z,85.77
2017-09-11T03:01:21.870Z,85.63
2017-09-11T03:02:21.839Z,86.24
2017-09-11T03:03:21.803Z,86.39
2017-09-11T03:04:21.769Z,86.39
2017-09-11T03:05:21.733Z,86.10
2017-09-11T03:06:21.698Z,86.39
2017-09-11T03:07:21.660Z,85.96
2017-09-11T03:08:21.632Z,86.39
2017-09-11T03:09:21.601Z,86.10
2017-09-11T03:10:21.554Z,86.15
2017-09-11T03:11:21.535Z,86.20
2017-09-11T03:12:21.484Z,86.43
2017-09-11T03:13:21.459Z,86.34
2017-09-11T03:14:21.415Z,86.39
2017-09-11T03:15:21.375Z,86.58
2017-09-11T03:16:21.342Z,85.86
2017-09-11T03:17:21.317Z,86.39
2017-09-11T03:18:21.275Z,86.15
2017-09-11T03:19:21.241Z,86.24
2017-09-11T03:20:21.202Z,86.30
2017-09-11T03:21:21.178Z,86.20
2017-09-11T03:22:21.131Z,86.34
2017-09-11T03:23:21.141Z,86.30
2017-09-11T03:24:21.075Z,86.05
2017-09-11T03:25:21.043Z,86.10
2017-09-11T03:26:21.013Z,86.63
2017-09-11T03:27:20.951Z,86.87
2017-09-11T03:28:20.920Z,86.15
2017-09-11T03:29:20.882Z,86.49
2017-09-11T03:30:20.854Z,86.82
2017-09-11T03:31:20.816Z,86.63
2017-09-11T03:32:20.778Z,86.77
2017-09-11T03:33:20.741Z,87.20
2017-09-11T03:34:20.708Z,86.87
2017-09-11T03:35:20.669Z,86.96
2017-09-11T03:36:20.638Z,87.06
2017-09-11T03:37:20.601Z,87.25
2017-09-11T03:38:20.567Z,87.15
2017-09-11T03:39:20.530Z,86.77
2017-09-11T03:40:20.504Z,86.87
2017-09-11T03:41:20.458Z,86.77
2017-09-11T03:42:20.423Z,86.96
2017-09-11T03:43:20.388Z,86.91
2017-09-11T03:44:20.351Z,86.96
2017-09-11T03:45:20.317Z,87.35
2017-09-11T03:46:20.280Z,86.82
2017-09-11T03:47:20.244Z,87.01
2017-09-11T03:48:20.212Z,86.53
2017-09-11T03:49:20.175Z,86.91
2017-09-11T03:50:20.140Z,86.72
2017-09-11T03:51:20.105Z,86.72
2017-09-11T03:52:20.068Z,86.77
2017-09-11T03:53:20.045Z,87.01
2017-09-11T03:54:20.002Z,87.20
2017-09-11T03:55:19.963Z,87.10
2017-09-11T03:56:19.929Z,87.15
2017-09-11T03:57:19.891Z,87.06
2017-09-11T03:58:19.854Z,86.96
2017-09-11T03:59:19.818Z,86.96
2017-09-11T04:00:19.782Z,87.15
2017-09-11T04:01:19.747Z,87.15
2017-09-11T04:02:19.713Z,86.77
2017-09-11T04:03:19.677Z,86.77
2017-09-11T04:04:19.637Z,87.20
2017-09-11T04:05:19.618Z,86.96
2017-09-11T04:06:19.573Z,87.29
2017-09-11T04:07:19.535Z,86.87
2017-09-11T04:08:19.501Z,87.39
2017-09-11T04:09:19.464Z,87.20
2017-09-11T04:10:19.440Z,87.20
2017-09-11T04:11:19.394Z,87.01
2017-09-11T04:12:19.355Z,86.82
2017-09-11T04:13:19.323Z,86.53
2017-09-11T04:14:19.296Z,86.72
2017-09-11T04:15:19.250Z,86.63
2017-09-11T04:16:19.215Z,86.58
2017-09-11T04:17:19.183Z,87.06
2017-09-11T04:18:19.146Z,87.44
2017-09-11T04:19:19.109Z,87.29
2017-09-11T04:20:19.081Z,86.87
2017-09-11T04:21:19.046Z,86.96
2017-09-11T04:22:19.002Z,87.15
2017-09-11T04:23:18.970Z,87.39
2017-09-11T04:24:18.932Z,87.01
2017-09-11T04:25:18.904Z,86.96
2017-09-11T04:26:18.861Z,87.39
2017-09-11T04:27:18.825Z,87.20
2017-09-11T04:28:18.791Z,86.63
2017-09-11T04:29:18.761Z,86.15
2017-09-11T04:30:18.743Z,86.58
2017-09-11T04:31:18.694Z,86.39
2017-09-11T04:32:18.649Z,86.34
2017-09-11T04:33:18.616Z,85.77
2017-09-11T04:34:18.582Z,86.15
2017-09-11T04:35:18.545Z,85.86
2017-09-11T04:36:18.509Z,86.34
2017-09-11T04:37:18.476Z,86.63
2017-09-11T04:38:18.434Z,85.38
2017-09-11T04:39:18.401Z,86.72
2017-09-11T04:40:18.366Z,85.48
2017-09-11T04:41:18.339Z,85.38
2017-09-11T04:42:18.300Z,86.24
2017-09-11T04:43:18.261Z,86.05
2017-09-11T04:44:18.229Z,86.05
2017-09-11T04:45:18.194Z,85.96
2017-09-11T04:46:18.163Z,85.58
2017-09-11T04:47:18.119Z,85.29
2017-09-11T04:48:18.122Z,84.28
2017-09-11T04:49:18.054Z,82.70
2017-09-11T04:50:18.015Z,81.26
2017-09-11T04:51:17.977Z,80.44
2017-09-11T04:52:17.960Z,79.58
2017-09-11T04:53:17.908Z,78.14
2017-09-11T04:54:17.873Z,77.99
2017-09-11T04:55:17.837Z,77.51
2017-09-11T04:56:17.801Z,77.33
2017-09-11T04:57:17.771Z,76.02
2017-09-11T04:58:17.735Z,74.87
2017-09-11T04:59:17.700Z,74.11
2017-09-11T05:00:17.664Z,74.49
2017-09-11T05:01:17.631Z,74.49
2017-09-11T05:02:17.597Z,73.76
2017-09-11T05:03:17.560Z,72.80
2017-09-11T05:04:17.531Z,72.52
2017-09-11T05:05:17.495Z,71.78
2017-09-11T05:06:17.462Z,71.21
2017-09-11T05:07:17.431Z,71.21
2017-09-11T05:08:17.394Z,70.64
2017-09-11T05:09:17.368Z,70.00
2017-09-11T05:10:17.332Z,70.00
2017-09-11T05:11:17.309Z,70.00
2017-09-11T05:12:17.264Z,69.13
2017-09-11T05:13:17.229Z,69.29
2017-09-11T05:14:17.196Z,69.04
2017-09-11T05:15:17.169Z,67.89
2017-09-11T05:16:17.139Z,68.21
2017-09-11T05:17:17.101Z,68.21
2017-09-11T05:18:17.065Z,67.83
2017-09-11T05:19:17.030Z,67.92
2017-09-11T05:20:16.998Z,67.63
2017-09-11T05:21:16.971Z,66.23
2017-09-11T05:22:16.936Z,65.65
2017-09-11T05:23:16.912Z,64.59
2017-09-11T05:24:16.872Z,64.34
2017-09-11T05:25:16.849Z,64.18
2017-09-11T05:26:16.811Z,63.89
2017-09-11T05:27:16.781Z,62.64
2017-09-11T05:28:16.744Z,62.55
2017-09-11T05:29:16.718Z,61.61
2017-09-11T05:30:16.684Z,61.23
2017-09-11T05:31:16.657Z,59.72
2017-09-11T05:32:16.633Z,58.60
2017-09-11T05:33:16.628Z,57.54
2017-09-11T05:34:16.584Z,57.35
2017-09-11T05:35:16.577Z,57.45
2017-09-11T05:36:16.509Z,58.60
2017-09-11T05:37:16.471Z,56.99
2017-09-11T05:38:16.440Z,57.15
2017-09-11T05:39:16.414Z,59.31
2017-09-11T05:40:16.380Z,59.15
2017-09-11T05:41:16.353Z,58.22
2017-09-11T05:42:16.327Z,56.96
2017-09-11T05:43:16.289Z,56.22
2017-09-11T05:44:16.263Z,54.61
2017-09-11T05:45:16.234Z,53.87
2017-09-11T05:46:16.208Z,52.93
2017-09-11T05:47:16.172Z,53.31
2017-09-11T05:48:16.188Z,52.35
2017-09-11T05:49:16.119Z,52.52
2017-09-11T05:50:16.090Z,52.45
2017-09-11T05:51:16.075Z,51.51
2017-09-11T05:52:16.056Z,50.74
2017-09-11T05:53:16.027Z,49.80
2017-09-11T05:54:15.975Z,50.06
2017-09-11T05:55:15.940Z,50.16
2017-09-11T05:56:15.958Z,50.16
2017-09-11T05:57:15.898Z,51.05
2017-09-11T05:58:15.857Z,50.64
2017-09-11T05:59:15.826Z,49.80
2017-09-11T06:00:15.793Z,49.60
2017-09-11T06:01:15.776Z,49.05
2017-09-11T06:02:15.737Z,48.57
2017-09-11T06:03:15.726Z,48.18
2017-09-11T06:04:15.674Z,47.89
2017-09-11T06:05:15.651Z,48.18
2017-09-11T06:06:15.617Z,48.01
2017-09-11T06:07:15.953Z,46.95
2017-09-11T06:08:15.558Z,47.05
2017-09-11T06:09:15.532Z,46.15
2017-09-11T06:10:15.510Z,46.20
2017-09-11T06:11:15.480Z,45.69
2017-09-11T06:12:15.449Z,47.81
2017-09-11T06:13:15.418Z,46.27
2017-09-11T06:14:15.391Z,44.96
2017-09-11T06:15:15.368Z,45.98
2017-09-11T06:16:15.338Z,46.75
2017-09-11T06:17:15.309Z,45.89
2017-09-11T06:18:15.280Z,46.75
2017-09-11T06:19:15.258Z,48.08
2017-09-11T06:20:15.226Z,47.80
2017-09-11T06:21:15.198Z,47.60
2017-09-11T06:22:15.171Z,47.58
2017-09-11T06:23:15.141Z,47.50
2017-09-11T06:24:15.118Z,47.70
2017-09-11T06:25:15.087Z,46.56
2017-09-11T06:26:15.068Z,46.66
2017-09-11T06:27:15.035Z,46.97
2017-09-11T06:28:15.005Z,45.06
2017-09-11T06:29:14.983Z,46.30
2017-09-11T06:30:14.960Z,45.16
2017-09-11T06:31:14.926Z,44.96
2017-09-11T06:32:14.897Z,43.92
2017-09-11T06:33:14.868Z,43.44
2017-09-11T06:34:14.850Z,42.30
2017-09-11T06:35:14.818Z,41.93
2017-09-11T06:36:14.789Z,43.05
2017-09-11T06:37:14.760Z,43.80
2017-09-11T06:38:14.735Z,43.68
2017-09-11T06:39:14.707Z,43.82
2017-09-11T06:40:14.680Z,44.29
2017-09-11T06:41:14.665Z,44.77
2017-09-11T06:42:14.626Z,45.40
2017-09-11T06:43:14.606Z,44.96
2017-09-11T06:44:14.574Z,44.29
2017-09-11T06:45:14.551Z,43.73
2017-09-11T06:46:14.523Z,44.17
2017-09-11T06:47:14.494Z,45.01
2017-09-11T06:48:14.469Z,45.50
2017-09-11T06:49:14.446Z,46.95
2017-09-11T06:50:14.418Z,45.54
2017-09-11T06:51:14.388Z,44.87
2017-09-11T06:52:14.361Z,44.65
2017-09-11T06:53:14.341Z,45.76
2017-09-11T06:54:14.310Z,48.93
2017-09-11T06:55:14.284Z,49.75
2017-09-11T06:56:14.256Z,51.24
2017-09-11T06:57:14.236Z,53.43
2017-09-11T06:58:14.204Z,55.04
2017-09-11T06:59:14.174Z,57.48
2017-09-11T07:00:14.149Z,57.87
2017-09-11T07:01:14.126Z,58.35
2017-09-11T07:02:14.097Z,59.22
2017-09-11T07:03:14.067Z,59.76
2017-09-11T07:04:14.043Z,60.31
2017-09-11T07:05:14.016Z,60.60
2017-09-11T07:06:13.987Z,60.88
2017-09-11T07:07:13.961Z,61.46
2017-09-11T07:08:13.932Z,61.30
2017-09-11T07:09:13.903Z,61.17
2017-09-11T07:10:13.877Z,62.04
2017-09-11T07:11:13.850Z,61.75
2017-09-11T07:12:13.823Z,62.23
2017-09-11T07:13:13.798Z,62.42
2017-09-11T07:14:13.765Z,62.32
2017-09-11T07:15:13.740Z,63.73
2017-09-11T07:16:13.707Z,63.45
2017-09-11T07:17:13.677Z,64.37
2017-09-11T07:18:13.662Z,64.50
2017-09-11T07:19:13.626Z,64.22
2017-09-11T07:20:13.593Z,64.12
2017-09-11T07:21:13.563Z,64.22
2017-09-11T07:22:13.534Z,63.73
2017-09-11T07:23:13.506Z,64.31
2017-09-11T07:24:13.475Z,64.18
2017-09-11T07:25:13.446Z,64.37
2017-09-11T07:26:13.422Z,64.66
2017-09-11T07:27:13.387Z,65.23
2017-09-11T07:28:13.366Z,64.95
2017-09-11T07:29:13.334Z,64.95
2017-09-11T07:30:13.301Z,65.43
2017-09-11T07:31:13.284Z,65.08
2017-09-11T07:32:13.244Z,65.23
2017-09-11T07:33:13.216Z,65.56
2017-09-11T07:34:13.181Z,65.17
2017-09-11T07:35:13.150Z,64.98
2017-09-11T07:36:13.138Z,64.40
2017-09-11T07:37:13.089Z,63.67
2017-09-11T07:38:13.064Z,63.67
2017-09-11T07:39:13.038Z,63.38
2017-09-11T07:40:13.009Z,63.67
2017-09-11T07:41:12.973Z,63.38
2017-09-11T07:42:12.942Z,63.76
2017-09-11T07:43:12.908Z,63.86
2017-09-11T07:44:12.882Z,63.67
2017-09-11T07:45:12.851Z,63.96
2017-09-11T07:46:12.820Z,64.25
2017-09-11T07:47:12.793Z,63.92
2017-09-11T07:48:12.780Z,63.48
2017-09-11T07:49:12.733Z,63.92
2017-09-11T07:50:12.705Z,63.96
2017-09-11T07:51:12.672Z,63.96
2017-09-11T07:52:12.645Z,63.28
2017-09-11T07:53:12.621Z,62.35
2017-09-11T07:54:12.584Z,62.45
2017-09-11T07:55:12.554Z,62.26
2017-09-11T07:56:12.523Z,62.26
2017-09-11T07:57:12.489Z,62.07
2017-09-11T07:58:12.463Z,62.26
2017-09-11T07:59:12.434Z,61.97
2017-09-11T08:00:12.410Z,62.10
2017-09-11T08:01:12.379Z,61.20
2017-09-11T08:02:12.345Z,61.58
2017-09-11T08:03:12.310Z,61.97
2017-09-11T08:04:12.308Z,62.07
2017-09-11T08:05:12.249Z,62.07
2017-09-11T08:06:12.236Z,61.30
2017-09-11T08:07:12.207Z,61.20
2017-09-11T08:08:12.160Z,61.78
2017-09-11T08:09:12.135Z,62.16
2017-09-11T08:10:12.108Z,61.78
2017-09-11T08:11:12.110Z,61.20
2017-09-11T08:12:12.176Z,61.11
2017-09-11T08:13:12.019Z,60.91
2017-09-11T08:14:11.985Z,60.66
2017-09-11T08:15:11.957Z,60.91
2017-09-11T08:16:11.942Z,61.30
2017-09-11T08:17:11.904Z,61.11
2017-09-11T08:18:11.875Z,61.20
2017-09-11T08:19:11.851Z,60.72
2017-09-11T08:20:11.828Z,60.43
2017-09-11T08:21:11.795Z,60.27
2017-09-11T08:22:11.828Z,60.56
2017-09-11T08:23:11.719Z,60.17
2017-09-11T08:24:11.795Z,59.79
2017-09-11T08:25:11.684Z,60.46
2017-09-11T08:26:11.630Z,60.37
2017-09-11T08:27:11.603Z,60.17
2017-09-11T08:28:11.621Z,59.22
2017-09-11T08:29:11.601Z,59.50
2017-09-11T08:30:11.581Z,59.31
2017-09-11T08:31:11.583Z,59.47
2017-09-11T08:32:11.460Z,60.46
2017-09-11T08:33:11.418Z,60.08
2017-09-11T08:34:11.398Z,59.89
2017-09-11T08:35:11.362Z,59.79
2017-09-11T08:36:11.353Z,59.22
2017-09-11T08:37:11.316Z,59.41
2017-09-11T08:38:11.412Z,60.17
2017-09-11T08:39:11.247Z,59.12
2017-09-11T08:40:11.212Z,59.19
2017-09-11T08:41:11.216Z,59.50
2017-09-11T08:42:11.216Z,59.09
2017-09-11T08:43:11.153Z,59.38
2017-09-11T08:44:11.158Z,59.47
2017-09-11T08:45:11.078Z,58.99
2017-09-11T08:46:11.055Z,58.73
2017-09-11T08:47:11.012Z,58.54
2017-09-11T08:48:10.970Z,58.45
2017-09-11T08:49:10.941Z,57.97
2017-09-11T08:50:10.925Z,57.97
2017-09-11T08:51:10.881Z,57.97
2017-09-11T08:52:10.852Z,57.68
2017-09-11T08:53:10.823Z,57.51
2017-09-11T08:54:10.793Z,57.97
2017-09-11T08:55:10.762Z,57.77
2017-09-11T08:56:10.731Z,58.06
2017-09-11T08:57:10.700Z,58.15
2017-09-11T08:58:10.672Z,57.51
2017-09-11T08:59:10.641Z,57.48
2017-09-11T09:00:10.621Z,56.91
2017-09-11T09:01:10.584Z,57.00
2017-09-11T09:02:10.562Z,56.71
2017-09-11T09:03:10.529Z,57.10
2017-09-11T09:04:10.496Z,57.58
2017-09-11T09:05:10.463Z,57.39
2017-09-11T09:06:10.436Z,57.39
2017-09-11T09:07:10.403Z,57.32
2017-09-11T09:08:10.381Z,56.91
2017-09-11T09:09:10.344Z,56.91
2017-09-11T09:10:10.315Z,57.68
2017-09-11T09:11:10.286Z,57.77
2017-09-11T09:12:10.255Z,57.10
2017-09-11T09:13:10.234Z,57.42
2017-09-11T09:14:10.197Z,56.65
2017-09-11T09:15:10.166Z,56.74
2017-09-11T09:16:10.136Z,56.26
2017-09-11T09:17:10.107Z,57.32
2017-09-11T09:18:10.082Z,57.32
2017-09-11T09:19:10.051Z,56.93
2017-09-11T09:20:10.027Z,56.62
2017-09-11T09:21:09.993Z,56.74
2017-09-11T09:22:09.961Z,57.03
2017-09-11T09:23:09.932Z,56.36
2017-09-11T09:24:09.908Z,55.49
2017-09-11T09:25:09.886Z,56.45
2017-09-11T09:26:09.850Z,56.07
2017-09-11T09:27:09.816Z,56.26
2017-09-11T09:28:09.783Z,55.59
2017-09-11T09:29:09.753Z,54.82
2017-09-11T09:30:09.723Z,54.91
2017-09-11T09:31:09.694Z,54.94
2017-09-11T09:32:09.665Z,54.94
2017-09-11T09:33:09.643Z,54.91
2017-09-11T09:34:09.606Z,55.78
2017-09-11T09:35:09.577Z,55.81
2017-09-11T09:36:09.557Z,55.43
2017-09-11T09:37:09.533Z,55.78
2017-09-11T09:38:09.488Z,55.78
2017-09-11T09:39:09.456Z,55.68
2017-09-11T09:40:09.433Z,56.10
2017-09-11T09:41:09.400Z,55.81
2017-09-11T09:42:09.369Z,55.81
2017-09-11T09:43:09.337Z,54.94
2017-09-11T09:44:09.312Z,55.43
2017-09-11T09:45:09.280Z,55.90
2017-09-11T09:46:09.261Z,56.00
2017-09-11T09:47:09.220Z,55.78
2017-09-11T09:48:09.193Z,55.90
2017-09-11T09:49:09.161Z,55.68
2017-09-11T09:50:09.141Z,56.07
2017-09-11T09:51:09.104Z,55.01
2017-09-11T09:52:09.075Z,55.49
2017-09-11T09:53:09.064Z,55.40
2017-09-11T09:54:09.017Z,55.59
2017-09-11T09:55:09.005Z,55.81
2017-09-11T09:56:08.958Z,55.68
2017-09-11T09:57:08.928Z,55.78
2017-09-11T09:58:08.909Z,55.88
2017-09-11T09:59:08.870Z,55.81
2017-09-11T10:00:08.881Z,55.90
2017-09-11T10:01:08.812Z,55.78
2017-09-11T10:02:08.781Z,55.81
2017-09-11T10:03:08.754Z,55.88
2017-09-11T10:04:08.725Z,55.78
2017-09-11T10:05:08.693Z,55.68
2017-09-11T10:06:08.665Z,55.43
2017-09-11T10:07:08.635Z,54.91
2017-09-11T10:08:08.605Z,55.62
2017-09-11T10:09:08.577Z,55.59
2017-09-11T10:10:08.553Z,56.00
2017-09-11T10:11:08.522Z,55.43
2017-09-11T10:12:08.497Z,54.65
2017-09-11T10:13:08.459Z,54.36
2017-09-11T10:14:08.431Z,54.17
2017-09-11T10:15:08.400Z,53.98
2017-09-11T10:16:08.369Z,54.27
2017-09-11T10:17:08.340Z,54.46
2017-09-11T10:18:08.323Z,54.20
2017-09-11T10:19:08.290Z,54.10
2017-09-11T10:20:08.253Z,54.10
2017-09-11T10:21:08.220Z,54.68
2017-09-11T10:22:08.196Z,53.88
2017-09-11T10:23:08.172Z,53.88
2017-09-11T10:24:08.142Z,53.81
2017-09-11T10:25:08.105Z,54.08
2017-09-11T10:26:08.084Z,53.91
2017-09-11T10:27:08.053Z,54.00
2017-09-11T10:28:08.017Z,54.30
2017-09-11T10:29:07.995Z,53.27
2017-09-11T10:30:07.970Z,52.97
2017-09-11T10:31:07.941Z,52.49
2017-09-11T10:32:07.907Z,52.49
2017-09-11T10:33:07.874Z,52.01
2017-09-11T10:34:07.849Z,51.62
2017-09-11T10:35:07.814Z,51.82
2017-09-11T10:36:07.817Z,51.72
2017-09-11T10:37:07.839Z,51.53
2017-09-11T10:38:07.730Z,51.65
2017-09-11T10:39:07.752Z,51.53
2017-09-11T10:40:07.677Z,51.26
2017-09-11T10:41:07.644Z,50.78
2017-09-11T10:42:07.615Z,50.21
2017-09-11T10:43:07.613Z,50.30
2017-09-11T10:44:07.552Z,50.71
2017-09-11T10:45:07.577Z,50.04
2017-09-11T10:46:07.519Z,49.55
2017-09-11T10:47:07.473Z,49.87
2017-09-11T10:48:07.480Z,49.19
2017-09-11T10:49:07.416Z,48.71
2017-09-11T10:50:07.391Z,49.39
2017-09-11T10:51:07.366Z,49.55
2017-09-11T10:52:07.329Z,49.65
2017-09-11T10:53:07.306Z,49.65
2017-09-11T10:54:07.276Z,49.55
2017-09-11T10:55:07.278Z,49.94
2017-09-11T10:56:07.254Z,49.58
2017-09-11T10:57:07.209Z,49.87
2017-09-11T10:58:07.196Z,49.68
2017-09-11T10:59:07.211Z,49.55
2017-09-11T11:00:07.107Z,48.79
2017-09-11T11:01:07.088Z,49.27
2017-09-11T11:02:07.059Z,49.00
2017-09-11T11:03:07.049Z,49.10
2017-09-11T11:04:07.006Z,48.97
2017-09-11T11:05:06.975Z,49.10
2017-09-11T11:06:06.937Z,48.33
2017-09-11T11:07:06.949Z,48.23
2017-09-11T11:08:06.878Z,48.35
2017-09-11T11:09:06.934Z,48.64
2017-09-11T11:10:06.818Z,48.16
2017-09-11T11:11:06.789Z,47.87
2017-09-11T11:12:06.792Z,48.06
2017-09-11T11:13:06.733Z,47.19
2017-09-11T11:14:06.715Z,47.48
2017-09-11T11:15:06.724Z,47.58
2017-09-11T11:16:06.675Z,47.58
2017-09-11T11:17:06.653Z,47.58
2017-09-11T11:18:06.738Z,47.58
2017-09-11T11:19:06.651Z,47.67
2017-09-11T11:20:06.544Z,47.55
2017-09-11T11:21:06.518Z,46.81
2017-09-11T11:22:06.509Z,46.69
2017-09-11T11:23:06.463Z,47.75
2017-09-11T11:24:06.454Z,47.85
2017-09-11T11:25:06.401Z,47.45
2017-09-11T11:26:06.380Z,47.82
2017-09-11T11:27:06.347Z,48.03
2017-09-11T11:28:06.323Z,47.45
2017-09-11T11:29:06.298Z,47.94
2017-09-11T11:30:06.267Z,47.55
2017-09-11T11:31:06.255Z,47.36
2017-09-11T11:32:06.210Z,47.55
2017-09-11T11:33:06.189Z,47.27
2017-09-11T11:34:06.158Z,46.97
2017-09-11T11:35:06.138Z,47.27
2017-09-11T11:36:06.108Z,47.75
2017-09-11T11:37:06.070Z,47.75
2017-09-11T11:38:06.041Z,47.53
2017-09-11T11:39:06.015Z,48.01
2017-09-11T11:40:05.986Z,47.92
2017-09-11T11:41:05.960Z,48.21
2017-09-11T11:42:05.932Z,48.11
2017-09-11T11:43:05.905Z,48.30
2017-09-11T11:44:05.883Z,48.38
2017-09-11T11:45:05.849Z,48.57
2017-09-11T11:46:05.819Z,48.38
2017-09-11T11:47:05.793Z,48.57
2017-09-11T11:48:05.763Z,49.05
2017-09-11T11:49:05.748Z,49.34
2017-09-11T11:50:05.711Z,48.95
2017-09-11T11:51:05.678Z,49.24
2017-09-11T11:52:05.652Z,49.34
2017-09-11T11:53:05.630Z,49.15
2017-09-11T11:54:05.594Z,49.53
2017-09-11T11:55:05.588Z,49.53
2017-09-11T11:56:05.543Z,49.63
2017-09-11T11:57:05.518Z,49.37
2017-09-11T11:58:05.482Z,48.88
2017-09-11T11:59:05.454Z,48.76
2017-09-11T12:00:05.428Z,48.66
2017-09-11T12:01:05.402Z,49.15
2017-09-11T12:02:05.378Z,49.63
2017-09-11T12:03:05.343Z,49.27
2017-09-11T12:04:05.316Z,49.34
2017-09-11T12:05:05.285Z,49.15
2017-09-11T12:06:05.275Z,49.24
2017-09-11T12:07:05.229Z,49.24
2017-09-11T12:08:05.202Z,48.95
2017-09-11T12:09:05.175Z,48.95
2017-09-11T12:10:05.147Z,48.76
2017-09-11T12:11:05.124Z,48.76
2017-09-11T12:12:05.090Z,48.76
2017-09-11T12:13:05.073Z,48.95
2017-09-11T12:14:05.063Z,49.05
2017-09-11T12:15:05.010Z,49.24
2017-09-11T12:16:04.981Z,49.24
2017-09-11T12:17:04.951Z,49.91
2017-09-11T12:18:04.923Z,49.73
2017-09-11T12:19:04.927Z,48.88
2017-09-11T12:20:04.865Z,50.01
2017-09-11T12:21:04.847Z,50.04
2017-09-11T12:22:04.809Z,49.75
2017-09-11T12:23:04.791Z,49.55
2017-09-11T12:24:04.760Z,49.58
2017-09-11T12:25:04.725Z,49.58
2017-09-11T12:26:04.698Z,49.77
2017-09-11T12:27:04.676Z,49.37
2017-09-11T12:28:04.639Z,49.17
2017-09-11T12:29:04.613Z,49.27
2017-09-11T12:30:04.595Z,49.27
2017-09-11T12:31:04.556Z,49.27
2017-09-11T12:32:04.530Z,49.84
2017-09-11T12:33:04.502Z,49.46
2017-09-11T12:34:04.471Z,49.55
2017-09-11T12:35:04.446Z,49.65
2017-09-11T12:36:04.436Z,49.46
2017-09-11T12:37:04.388Z,49.48
2017-09-11T12:38:04.361Z,49.46
2017-09-11T12:39:04.336Z,49.55
2017-09-11T12:40:04.307Z,49.82
2017-09-11T12:41:04.299Z,49.91
2017-09-11T12:42:04.249Z,50.49
2017-09-11T12:43:04.221Z,50.21
2017-09-11T12:44:04.199Z,50.59
2017-09-11T12:45:04.163Z,50.27
2017-09-11T12:46:04.147Z,50.98
2017-09-11T12:47:04.112Z,50.95
2017-09-11T12:48:04.086Z,50.88
2017-09-11T12:49:04.053Z,51.07
2017-09-11T12:50:04.032Z,50.69
2017-09-11T12:51:04.002Z,50.69
2017-09-11T12:52:03.969Z,50.78